Date,TemperatureHighF,TemperatureAvgF,TemperatureLowF,DewpointHighF,DewpointAvgF,DewpointLowF,HumidityHigh,HumidityAvg,HumidityLow,PressureMaxIn,PressureMinIn,WindSpeedMaxMPH,WindSpeedAvgMPH,GustSpeedMaxMPH,PrecipitationSumIn
2013-2-1,83,61,45,46,39,28,76,50,15,30.05,29.95,3,1,7,0.00
2013-2-2,85,65,51,49,40,29,65,45,15,30.08,29.95,3,0,5,0.00
2013-2-3,84,68,56,50,46,40,65,47,23,29.96,29.80,8,2,15,0.00
2013-2-4,91,66,51,45,38,23,68,43,10,29.89,29.74,6,2,9,0.00
2013-2-5,86,66,49,44,38,23,67,40,11,29.85,29.70,5,1,13,0.00
2013-2-6,84,68,58,45,37,20,58,38,10,29.81,29.69,13,5,23,0.00
2013-2-7,79,63,48,45,37,17,67,43,10,29.92,29.71,11,2,21,0.00
2013-2-8,65,54,46,40,35,28,62,49,30,29.79,29.69,18,6,32,0.00
2013-2-9,69,54,43,35,32,26,71,45,21,29.89,29.71,9,4,18,0.00
2013-2-10,71,56,47,36,32,25,56,42,18,29.89,29.78,9,4,17,0.00
2013-2-11,66,55,43,37,18,-1,61,28,10,30.08,29.85,12,5,24,0.00
2013-2-12,76,53,37,30,18,3,52,29,10,30.19,30.04,3,1,8,0.00
2013-2-13,81,56,39,31,24,14,60,34,10,30.11,29.93,4,1,8,0.00
2013-2-14,83,63,45,35,25,13,57,30,10,30.03,29.90,7,2,16,0.00
2013-2-15,88,65,49,37,25,12,53,25,10,30.11,30.01,4,2,8,0.00
2013-2-16,89,63,47,38,23,10,47,25,10,30.08,29.80,3,0,5,0.00
2013-2-17,89,64,44,35,24,13,48,24,10,29.80,29.64,12,3,21,0.00
2013-2-18,82,64,46,42,31,16,61,34,10,29.86,29.69,7,2,13,0.00
2013-2-19,68,58,50,43,38,31,61,48,29,29.70,29.50,13,8,24,0.00
2013-2-20,66,54,41,42,35,29,90,53,27,29.77,29.49,13,6,25,0.00
2013-2-21,73,56,44,37,31,21,59,41,19,29.92,29.77,8,3,15,0.00
2013-2-22,78,56,39,34,25,11,66,38,10,30.03,29.91,3,1,10,0.00
2013-2-23,77,67,60,36,27,4,39,24,10,29.83,29.63,14,5,24,0.00
2013-2-24,74,60,46,18,6,-3,29,12,10,30.05,29.83,13,4,25,0.00
2013-2-25,76,56,41,27,16,4,42,24,10,30.08,29.87,4,1,10,0.00
2013-2-26,80,58,0,33,19,-35,62,26,10,30.03,29.83,7,2,19,0.00
2013-2-27,78,61,44,26,14,-47,46,18,10,30.15,30.03,11,3,103,0.33
2013-2-28,88,66,48,38,17,0,59,16,10,30.19,30.08,9,2,10,0.00